Time;durP1;ratioP1;P1;durP2;ratioP2;P2;SDS_P1;SDS_P2;PMS_P1;PMS_P2;Temp;Humidity;BMP_temperature;BMP_pressure;BME280_temperature;BME280_humidity;BME280_pressure;Samples;Min_cycle;Max_cycle;Signal;HPM_P1;HPM_P2
2023/05/07 00:00:59;;;;;;;16.60;14.90;;;10.10;1.00;;;;;;4988920;28;20531;-81
2023/05/07 00:03:26;;;;;;;16.10;14.60;;;10.20;1.00;;;;;;4982849;28;20499;-80
2023/05/07 00:05:56;;;;;;;15.50;14.20;;;10.20;1.00;;;;;;4982627;28;20570;-80
2023/05/07 00:08:23;;;;;;;15.73;14.33;;;10.30;1.00;;;;;;4983393;28;20459;-81
2023/05/07 00:10:50;;;;;;;16.50;14.93;;;10.30;1.00;;;;;;4983767;28;20459;-81
2023/05/07 00:13:17;;;;;;;15.57;14.27;;;10.30;1.00;;;;;;4981542;28;20852;-80
2023/05/07 00:15:43;;;;;;;15.47;14.00;;;10.30;1.00;;;;;;4985722;28;20535;-81
2023/05/07 00:18:10;;;;;;;14.53;13.13;;;10.30;1.00;;;;;;4979301;28;20892;-81
2023/05/07 00:20:37;;;;;;;14.70;13.23;;;10.20;1.00;;;;;;4979824;28;20471;-81
2023/05/07 00:23:06;;;;;;;14.40;13.10;;;10.20;1.00;;;;;;4987241;28;20511;-80
2023/05/07 00:25:33;;;;;;;14.40;13.10;;;10.20;1.00;;;;;;4981789;28;20492;-80
2023/05/07 00:28:03;;;;;;;14.27;12.90;;;10.20;1.00;;;;;;4982858;28;20897;-81
2023/05/07 00:30:30;;;;;;;13.97;12.67;;;10.10;1.00;;;;;;4979465;28;20471;-80
2023/05/07 00:32:57;;;;;;;13.80;12.70;;;10.10;1.00;;;;;;4980733;28;20463;-80
2023/05/07 00:35:24;;;;;;;15.30;14.07;;;10.20;1.00;;;;;;4980421;28;20531;-80
2023/05/07 00:37:53;;;;;;;14.90;13.50;;;10.10;1.00;;;;;;4984644;28;20618;-80
2023/05/07 00:40:21;;;;;;;14.20;13.00;;;9.90;1.00;;;;;;4987689;28;20499;-81
2023/05/07 00:42:48;;;;;;;14.37;13.07;;;9.90;1.00;;;;;;4984463;28;20463;-81
2023/05/07 00:45:15;;;;;;;15.53;14.03;;;9.80;1.00;;;;;;4978294;28;20479;-80
2023/05/07 00:47:44;;;;;;;14.10;12.90;;;9.70;1.00;;;;;;4981282;28;20480;-80
2023/05/07 00:50:13;;;;;;;14.40;13.13;;;9.80;1.00;;;;;;4981145;28;20471;-81
2023/05/07 00:52:41;;;;;;;15.17;13.87;;;9.80;1.00;;;;;;4976538;28;20448;-81
2023/05/07 00:55:12;;;;;;;15.83;14.23;;;9.90;1.00;;;;;;4981422;28;20476;-81
2023/05/07 00:57:41;;;;;;;15.93;14.43;;;9.90;1.00;;;;;;4985203;28;20459;-81
2023/05/07 01:00:14;;;;;;;14.13;12.73;;;9.90;1.00;;;;;;4985859;28;20463;-81
2023/05/07 01:02:41;;;;;;;14.67;13.40;;;10.00;1.00;;;;;;4981755;28;20459;-83
2023/05/07 01:05:11;;;;;;;15.70;14.37;;;10.00;1.00;;;;;;5044717;23;20467;-80
2023/05/07 01:07:40;;;;;;;16.43;14.93;;;10.00;1.00;;;;;;5004416;28;20455;-80
2023/05/07 01:10:09;;;;;;;15.57;14.07;;;10.10;1.00;;;;;;5016233;28;20515;-80
2023/05/07 01:12:38;;;;;;;14.63;13.40;;;10.10;1.00;;;;;;5007368;28;20994;-80
2023/05/07 01:15:09;;;;;;;14.53;13.33;;;10.10;1.00;;;;;;5006258;28;21036;-80
2023/05/07 01:17:37;;;;;;;14.40;13.10;;;10.10;1.00;;;;;;5008441;28;20459;-80
2023/05/07 01:20:06;;;;;;;15.73;14.33;;;10.10;1.00;;;;;;5005474;28;20975;-80
2023/05/07 01:22:36;;;;;;;14.50;13.30;;;10.10;1.00;;;;;;5001521;28;20482;-80
2023/05/07 01:25:04;;;;;;;14.57;13.33;;;10.20;1.00;;;;;;5009849;28;20474;-80
2023/05/07 01:27:33;;;;;;;13.97;12.63;;;10.20;1.00;;;;;;4999980;28;20423;-80
2023/05/07 01:30:00;;;;;;;15.07;13.67;;;10.10;1.00;;;;;;5011781;28;20985;-80
2023/05/07 01:32:34;;;;;;;14.93;13.63;;;10.10;1.00;;;;;;5006218;28;20463;-80
2023/05/07 01:35:03;;;;;;;14.00;12.77;;;10.00;1.00;;;;;;5006448;28;20557;-79
2023/05/07 01:37:31;;;;;;;14.93;13.63;;;10.00;1.00;;;;;;5004180;28;20523;-79
2023/05/07 01:40:01;;;;;;;13.70;12.30;;;10.10;1.00;;;;;;5003831;28;20517;-80
2023/05/07 01:42:30;;;;;;;14.10;12.80;;;10.10;1.00;;;;;;5000069;28;20467;-81
2023/05/07 01:44:57;;;;;;;13.77;12.50;;;10.10;1.00;;;;;;5004696;28;20509;-81
2023/05/07 01:47:26;;;;;;;14.83;13.60;;;10.00;1.00;;;;;;5009103;28;20538;-81
2023/05/07 01:49:53;;;;;;;13.93;12.77;;;10.00;1.00;;;;;;5010749;28;20431;-81
2023/05/07 01:52:24;;;;;;;13.33;12.23;;;10.00;1.00;;;;;;5012330;28;20466;-81
2023/05/07 01:54:52;;;;;;;13.77;12.60;;;10.00;1.00;;;;;;5009215;28;20446;-81
2023/05/07 01:57:24;;;;;;;14.27;12.97;;;10.10;1.00;;;;;;5012583;28;20451;-80
2023/05/07 01:59:54;;;;;;;13.53;12.33;;;10.10;1.00;;;;;;5017145;28;20451;-80
2023/05/07 02:02:22;;;;;;;13.50;12.27;;;10.10;1.00;;;;;;5015259;28;20466;-81
2023/05/07 02:04:49;;;;;;;14.57;13.17;;;10.10;1.00;;;;;;5005591;28;20474;-81
2023/05/07 02:07:16;;;;;;;13.80;12.57;;;10.10;1.00;;;;;;5004308;28;20470;-81
2023/05/07 02:09:43;;;;;;;15.07;13.63;;;10.10;1.00;;;;;;5009490;28;20471;-81
2023/05/07 02:12:10;;;;;;;13.70;12.37;;;10.10;1.00;;;;;;5004763;28;20487;-81
2023/05/07 02:14:39;;;;;;;14.60;13.17;;;10.10;1.00;;;;;;5003912;28;20474;-81
2023/05/07 02:17:05;;;;;;;14.17;12.77;;;10.10;1.00;;;;;;5007298;28;20451;-81
2023/05/07 02:19:32;;;;;;;13.60;12.47;;;10.20;1.00;;;;;;5006081;28;20549;-80
2023/05/07 02:22:00;;;;;;;16.30;14.80;;;10.20;1.00;;;;;;5002908;28;20461;-81
2023/05/07 02:24:28;;;;;;;16.40;13.40;;;10.10;1.00;;;;;;5010321;28;20680;-81
2023/05/07 02:26:55;;;;;;;14.47;13.17;;;10.10;1.00;;;;;;5009995;28;20459;-80
2023/05/07 02:29:21;;;;;;;13.93;12.80;;;10.10;1.00;;;;;;5004132;28;20837;-80
2023/05/07 02:31:52;;;;;;;13.47;12.37;;;10.10;1.00;;;;;;5012406;28;20950;-80
2023/05/07 02:34:19;;;;;;;15.40;12.87;;;10.10;1.00;;;;;;4998130;28;21176;-81
2023/05/07 02:36:47;;;;;;;14.43;12.83;;;9.90;1.00;;;;;;4984705;28;20474;-80
2023/05/07 02:39:14;;;;;;;15.93;14.53;;;9.90;1.00;;;;;;5007460;28;21387;-80
2023/05/07 02:41:41;;;;;;;13.67;12.40;;;9.90;1.00;;;;;;5005287;28;20470;-80
2023/05/07 02:44:08;;;;;;;15.17;13.77;;;9.90;1.00;;;;;;5002601;28;20478;-80
2023/05/07 02:46:36;;;;;;;14.23;12.80;;;10.00;1.00;;;;;;5010886;28;20478;-80
2023/05/07 02:49:04;;;;;;;13.10;11.50;;;10.00;1.00;;;;;;5010136;28;20460;-79
2023/05/07 02:51:33;;;;;;;14.40;13.00;;;10.00;1.00;;;;;;5006458;28;20478;-79
2023/05/07 02:54:00;;;;;;;13.43;12.13;;;10.00;1.00;;;;;;5009252;28;20557;-80
2023/05/07 02:56:28;;;;;;;13.67;12.47;;;10.00;1.00;;;;;;5011165;28;20561;-80
2023/05/07 02:58:55;;;;;;;13.60;12.30;;;10.10;1.00;;;;;;5010406;28;20889;-79
2023/05/07 03:01:22;;;;;;;13.60;12.37;;;10.00;1.00;;;;;;5006561;28;20454;-80
2023/05/07 03:03:49;;;;;;;13.80;12.50;;;10.00;1.00;;;;;;5005435;28;21587;-80
2023/05/07 03:06:17;;;;;;;16.07;11.87;;;9.90;1.00;;;;;;5012830;28;20490;-82
2023/05/07 03:08:45;;;;;;;12.80;11.60;;;10.00;1.00;;;;;;5004756;28;20562;-80
2023/05/07 03:11:12;;;;;;;12.80;11.70;;;10.00;1.00;;;;;;5007115;28;20535;-79
2023/05/07 03:13:39;;;;;;;14.43;13.20;;;9.90;1.00;;;;;;5007941;28;20548;-79
2023/05/07 03:16:07;;;;;;;13.83;12.47;;;9.90;1.00;;;;;;5006577;28;20455;-80
2023/05/07 03:18:34;;;;;;;12.93;11.83;;;9.90;1.00;;;;;;5000866;28;20447;-80
2023/05/07 03:21:01;;;;;;;15.00;13.50;;;9.90;1.00;;;;;;5012605;28;21016;-80
2023/05/07 03:23:29;;;;;;;13.37;12.27;;;9.90;1.00;;;;;;5003774;28;20443;-79
2023/05/07 03:25:56;;;;;;;14.07;12.80;;;9.80;1.00;;;;;;5014334;28;20473;-80
2023/05/07 03:28:23;;;;;;;15.20;13.80;;;9.90;1.00;;;;;;5003047;28;20474;-80
2023/05/07 03:30:50;;;;;;;15.70;12.27;;;9.90;1.00;;;;;;5011095;28;20520;-80
2023/05/07 03:33:17;;;;;;;15.33;12.90;;;9.90;1.00;;;;;;5000238;28;21002;-80
2023/05/07 03:35:44;;;;;;;14.30;12.93;;;9.90;1.00;;;;;;5006110;28;20564;-80
2023/05/07 03:38:12;;;;;;;13.90;12.70;;;9.90;1.00;;;;;;4997134;28;20545;-79
2023/05/07 03:40:40;;;;;;;13.77;12.50;;;9.90;1.00;;;;;;5005574;28;20466;-80
2023/05/07 03:43:08;;;;;;;15.17;13.80;;;10.00;1.00;;;;;;5007317;28;20517;-82
2023/05/07 03:45:35;;;;;;;13.20;12.07;;;10.10;1.00;;;;;;5003672;28;20454;-79
2023/05/07 03:48:02;;;;;;;13.70;12.50;;;10.00;1.00;;;;;;4999180;28;20509;-81
2023/05/07 03:50:29;;;;;;;13.97;12.70;;;9.90;1.00;;;;;;5006724;28;20508;-81
2023/05/07 03:52:56;;;;;;;13.00;11.90;;;9.90;1.00;;;;;;5005592;28;20471;-81
2023/05/07 03:55:23;;;;;;;13.67;12.37;;;9.90;1.00;;;;;;5006614;28;21252;-81
2023/05/07 03:57:52;;;;;;;13.20;12.00;;;9.90;1.00;;;;;;5004961;28;20529;-81
2023/05/07 04:00:19;;;;;;;13.10;11.97;;;9.80;1.00;;;;;;5002685;28;21177;-80
2023/05/07 04:02:46;;;;;;;12.83;11.60;;;9.70;1.00;;;;;;5010832;28;20462;-80
2023/05/07 04:05:16;;;;;;;13.23;12.03;;;9.80;1.00;;;;;;4999122;28;20463;-80
2023/05/07 04:07:44;;;;;;;12.97;11.70;;;9.80;1.00;;;;;;5003827;28;21302;-81
2023/05/07 04:10:13;;;;;;;14.00;12.77;;;9.80;1.00;;;;;;5004352;28;21237;-80
2023/05/07 04:12:40;;;;;;;13.00;11.80;;;9.70;1.00;;;;;;5003825;28;20434;-80
2023/05/07 04:15:09;;;;;;;12.60;11.60;;;9.70;1.00;;;;;;5003915;28;20521;-80
2023/05/07 04:17:36;;;;;;;12.97;11.80;;;9.70;1.00;;;;;;5003412;28;20521;-80
2023/05/07 04:20:04;;;;;;;12.83;11.70;;;9.70;1.00;;;;;;4999895;28;20459;-80
2023/05/07 04:22:31;;;;;;;13.50;12.10;;;9.70;1.00;;;;;;4994368;28;20601;-80
2023/05/07 04:24:58;;;;;;;13.83;11.53;;;9.70;1.00;;;;;;4999208;28;20581;-80
2023/05/07 04:27:25;;;;;;;12.37;11.20;;;9.70;1.00;;;;;;4995860;28;21785;-80
2023/05/07 04:29:55;;;;;;;13.30;12.10;;;9.70;1.00;;;;;;5002850;28;20845;-80
2023/05/07 04:32:24;;;;;;;11.83;10.67;;;9.80;1.00;;;;;;4998784;28;20478;-80
2023/05/07 04:34:52;;;;;;;11.80;10.70;;;9.90;1.00;;;;;;4997003;28;20550;-79
2023/05/07 04:37:19;;;;;;;11.80;10.70;;;9.90;1.00;;;;;;5000991;28;20499;-80
2023/05/07 04:39:47;;;;;;;10.27;9.30;;;9.90;1.00;;;;;;5000996;28;20502;-80
2023/05/07 04:42:16;;;;;;;11.23;10.30;;;9.80;1.00;;;;;;5005012;28;20475;-79
2023/05/07 04:44:43;;;;;;;12.10;10.90;;;9.80;1.00;;;;;;5001463;28;20474;-79
2023/05/07 04:47:10;;;;;;;11.73;10.77;;;9.80;1.00;;;;;;5003598;28;20545;-80
2023/05/07 04:49:39;;;;;;;10.97;9.97;;;9.80;1.00;;;;;;5001369;28;20467;-80
2023/05/07 04:52:06;;;;;;;11.10;10.00;;;9.80;1.00;;;;;;5006621;28;20474;-80
2023/05/07 04:54:33;;;;;;;11.13;10.17;;;9.80;1.00;;;;;;5004101;28;20466;-80
2023/05/07 04:57:00;;;;;;;9.23;8.53;;;9.90;1.00;;;;;;4997144;28;20462;-80
2023/05/07 04:59:27;;;;;;;9.77;8.37;;;9.90;1.00;;;;;;5001598;28;20423;-79
2023/05/07 05:01:54;;;;;;;9.43;8.63;;;10.00;1.00;;;;;;4999076;28;20491;-79
2023/05/07 05:04:24;;;;;;;9.70;8.90;;;10.10;1.00;;;;;;5001028;28;20658;-80
2023/05/07 05:06:53;;;;;;;10.27;9.20;;;10.20;1.00;;;;;;5001365;28;20508;-80
2023/05/07 05:09:20;;;;;;;10.30;9.30;;;10.30;1.00;;;;;;5003969;28;20537;-80
2023/05/07 05:11:47;;;;;;;10.03;9.13;;;10.30;1.00;;;;;;4999474;28;20494;-80
2023/05/07 05:14:14;;;;;;;10.70;9.60;;;10.30;1.00;;;;;;4997953;28;20495;-81
2023/05/07 05:16:41;;;;;;;10.40;9.40;;;10.40;1.00;;;;;;4999498;28;20436;-81
2023/05/07 05:19:08;;;;;;;10.63;9.53;;;10.40;1.00;;;;;;5002082;28;20463;-80
2023/05/07 05:21:35;;;;;;;9.73;8.80;;;10.40;1.00;;;;;;5000497;28;20473;-80
2023/05/07 05:24:05;;;;;;;11.53;10.33;;;10.30;1.00;;;;;;4997646;28;20468;-81
2023/05/07 05:26:32;;;;;;;11.27;10.17;;;10.10;1.00;;;;;;5000313;28;20471;-81
2023/05/07 05:28:59;;;;;;;10.77;9.67;;;9.90;1.00;;;;;;5003108;28;20953;-80
2023/05/07 05:31:28;;;;;;;12.40;11.30;;;9.90;1.00;;;;;;5002093;28;20458;-80
2023/05/07 05:33:55;;;;;;;11.60;10.40;;;10.10;1.00;;;;;;5004458;28;20912;-80
2023/05/07 05:36:23;;;;;;;10.60;9.47;;;10.20;1.00;;;;;;5000703;28;20457;-81
2023/05/07 05:38:50;;;;;;;9.83;9.03;;;10.30;1.00;;;;;;5007852;28;20411;-81
2023/05/07 05:41:19;;;;;;;10.60;9.60;;;10.30;1.00;;;;;;5003430;28;20505;-80
2023/05/07 05:43:46;;;;;;;12.03;10.93;;;10.30;1.00;;;;;;5006330;28;20469;-80
2023/05/07 05:46:13;;;;;;;10.70;9.60;;;10.20;1.00;;;;;;5005659;28;20463;-80
2023/05/07 05:48:54;;;;;;;10.50;9.60;;;10.40;1.00;;;;;;5008391;28;21397;-82
2023/05/07 05:51:22;;;;;;;10.20;9.20;;;10.50;1.00;;;;;;5012851;28;20465;-82
2023/05/07 05:53:49;;;;;;;10.70;9.73;;;10.50;1.00;;;;;;4984652;28;20491;-82
2023/05/07 05:56:18;;;;;;;11.87;10.67;;;10.50;1.00;;;;;;5005067;28;20458;-84
2023/05/07 05:58:46;;;;;;;10.67;9.37;;;10.50;1.00;;;;;;5003950;28;20422;-82
2023/05/07 06:01:13;;;;;;;11.33;10.33;;;10.60;1.00;;;;;;5005291;28;20537;-81
2023/05/07 06:03:40;;;;;;;11.00;10.00;;;10.60;1.00;;;;;;5004286;28;20514;-81
2023/05/07 06:06:08;;;;;;;11.50;10.50;;;10.70;1.00;;;;;;5002682;28;20427;-81
2023/05/07 06:08:35;;;;;;;11.80;10.70;;;10.70;1.00;;;;;;5010789;28;20541;-82
2023/05/07 06:11:03;;;;;;;10.67;9.57;;;10.80;1.00;;;;;;5013530;28;20441;-81
2023/05/07 06:13:35;;;;;;;11.03;10.10;;;10.90;1.00;;;;;;5016398;28;21222;-81
2023/05/07 06:16:02;;;;;;;10.33;9.43;;;11.10;1.00;;;;;;5013275;28;20424;-82
2023/05/07 06:18:31;;;;;;;10.70;9.70;;;11.30;1.00;;;;;;5013926;28;20439;-81
2023/05/07 06:20:59;;;;;;;9.90;8.93;;;11.40;1.00;;;;;;5007723;28;20436;-82
2023/05/07 06:23:27;;;;;;;10.50;9.57;;;11.30;1.00;;;;;;5012460;28;20454;-84
2023/05/07 06:25:57;;;;;;;9.73;8.93;;;11.20;1.00;;;;;;5002946;28;20450;-83
2023/05/07 06:28:25;;;;;;;11.50;10.30;;;11.20;1.00;;;;;;4995928;28;20423;-82
2023/05/07 06:30:54;;;;;;;10.10;9.20;;;11.20;1.00;;;;;;5011281;28;20443;-85
2023/05/07 06:33:21;;;;;;;9.53;8.73;;;11.30;1.00;;;;;;5010826;28;21292;-85
2023/05/07 06:35:50;;;;;;;9.53;8.53;;;11.40;1.00;;;;;;5011236;28;20463;-84
2023/05/07 06:38:19;;;;;;;10.00;9.00;;;11.50;1.00;;;;;;5016885;28;20487;-85
2023/05/07 06:40:50;;;;;;;10.03;9.10;;;11.60;1.00;;;;;;5018910;28;21290;-83
2023/05/07 06:43:17;;;;;;;10.50;9.60;;;11.30;1.00;;;;;;5014795;28;20500;-82
2023/05/07 06:45:46;;;;;;;9.37;8.47;;;11.30;1.00;;;;;;5011217;28;20423;-84
2023/05/07 06:48:18;;;;;;;9.77;7.97;;;11.40;1.00;;;;;;5014413;28;20419;-84
2023/05/07 06:50:45;;;;;;;9.03;8.23;;;11.50;1.00;;;;;;4986946;28;20472;-84
2023/05/07 06:53:12;;;;;;;8.97;8.17;;;11.80;1.00;;;;;;5015222;28;20446;-86
2023/05/07 06:55:39;;;;;;;9.57;8.77;;;11.80;1.00;;;;;;4998553;28;20466;-83
2023/05/07 06:58:06;;;;;;;8.83;8.03;;;11.70;1.00;;;;;;5009739;28;20466;-83
2023/05/07 07:00:36;;;;;;;9.63;8.77;;;11.80;1.00;;;;;;5006287;28;20482;-83
2023/05/07 07:03:03;;;;;;;9.03;8.13;;;11.80;1.00;;;;;;5009729;28;20447;-84
2023/05/07 07:05:32;;;;;;;8.97;8.17;;;12.10;1.00;;;;;;4977271;28;20472;-84
2023/05/07 07:08:01;;;;;;;7.37;6.77;;;12.20;1.00;;;;;;5006148;28;20453;-83
2023/05/07 07:10:27;;;;;;;8.07;7.47;;;12.20;1.00;;;;;;5007072;28;21630;-80
2023/05/07 07:12:56;;;;;;;9.03;8.20;;;12.00;1.00;;;;;;5012782;28;20452;-88
2023/05/07 07:15:25;;;;;;;8.10;7.40;;;12.20;1.00;;;;;;5008279;28;20557;-86
2023/05/07 07:17:52;;;;;;;7.90;7.20;;;12.20;1.00;;;;;;5009470;28;20423;-85
2023/05/07 07:20:20;;;;;;;8.83;8.13;;;12.40;1.00;;;;;;5019089;28;20526;-86
2023/05/07 07:22:50;;;;;;;9.13;7.67;;;12.50;1.00;;;;;;5015305;28;20489;-88
2023/05/07 07:25:18;;;;;;;8.53;7.83;;;12.80;1.00;;;;;;5014171;28;20437;-86
2023/05/07 07:27:45;;;;;;;7.13;6.53;;;13.00;1.00;;;;;;5008088;28;20492;-87
2023/05/07 07:30:13;;;;;;;8.03;7.20;;;13.30;1.00;;;;;;5014953;28;20495;-87
2023/05/07 07:32:42;;;;;;;7.33;5.90;;;13.30;1.00;;;;;;5009583;28;20507;-88
2023/05/07 07:35:10;;;;;;;7.47;6.80;;;13.40;1.00;;;;;;4993739;28;20505;-88
2023/05/07 07:37:38;;;;;;;7.10;6.50;;;13.50;1.00;;;;;;5007770;28;21229;-89
2023/05/07 07:40:12;;;;;;;6.70;6.20;;;13.20;1.00;;;;;;5007380;28;20502;-83
2023/05/07 07:42:44;;;;;;;6.83;6.23;;;12.70;1.00;;;;;;5010432;28;20519;-86
2023/05/07 07:45:12;;;;;;;7.83;7.20;;;12.70;1.00;;;;;;5005328;28;20468;-86
2023/05/07 07:47:41;;;;;;;7.33;6.83;;;12.60;1.00;;;;;;4993665;28;20452;-86
2023/05/07 07:50:10;;;;;;;6.90;5.50;;;12.80;1.00;;;;;;5007497;28;21161;-88
2023/05/07 07:52:41;;;;;;;7.50;6.20;;;13.00;1.00;;;;;;5007256;28;20539;-83
2023/05/07 07:55:12;;;;;;;5.27;4.93;;;13.20;1.00;;;;;;5000820;28;20491;-81
2023/05/07 07:57:40;;;;;;;5.83;5.33;;;13.40;1.00;;;;;;5005571;28;20457;-83
2023/05/07 08:00:09;;;;;;;5.93;5.40;;;13.40;1.00;;;;;;5010334;28;20976;-80
2023/05/07 08:02:37;;;;;;;6.50;5.73;;;13.40;1.00;;;;;;5001297;28;20586;-80
2023/05/07 08:05:11;;;;;;;6.00;5.50;;;13.40;1.00;;;;;;5004397;28;20444;-81
2023/05/07 08:07:39;;;;;;;5.93;5.33;;;13.50;1.00;;;;;;5004683;28;20476;-82
2023/05/07 08:10:10;;;;;;;5.80;5.40;;;13.60;1.00;;;;;;4999268;28;20498;-80
2023/05/07 08:12:37;;;;;;;4.53;4.23;;;13.70;1.00;;;;;;5006628;28;21275;-81
2023/05/07 08:15:05;;;;;;;5.63;4.60;;;13.70;1.00;;;;;;5005658;28;20499;-78
2023/05/07 08:17:37;;;;;;;6.30;5.70;;;13.90;1.00;;;;;;4989748;28;20474;-81
2023/05/07 08:20:05;;;;;;;5.47;4.97;;;13.90;1.00;;;;;;5001613;28;20467;-79
2023/05/07 08:22:32;;;;;;;5.73;5.23;;;14.30;1.00;;;;;;5001214;28;20953;-79
2023/05/07 08:25:01;;;;;;;5.40;5.00;;;14.40;1.00;;;;;;5003434;28;20480;-78
2023/05/07 08:27:30;;;;;;;5.03;4.53;;;14.60;1.00;;;;;;5002859;28;21180;-80
2023/05/07 08:29:58;;;;;;;5.53;4.60;;;14.90;1.00;;;;;;5000994;28;20467;-80
2023/05/07 08:32:25;;;;;;;5.23;4.80;;;15.00;1.00;;;;;;4986079;28;22702;-80
2023/05/07 08:34:54;;;;;;;4.63;4.30;;;14.90;1.00;;;;;;5006557;28;20459;-80
2023/05/07 08:37:24;;;;;;;5.23;4.77;;;14.60;1.00;;;;;;5000955;28;20473;-80
2023/05/07 08:39:51;;;;;;;5.37;4.87;;;14.80;1.00;;;;;;5000970;28;20469;-80
2023/05/07 08:42:18;;;;;;;4.40;4.10;;;14.90;1.00;;;;;;4999233;28;21287;-80
2023/05/07 08:44:47;;;;;;;4.90;4.50;;;15.00;1.00;;;;;;5001533;28;20553;-79
2023/05/07 08:47:17;;;;;;;5.10;4.03;;;15.10;1.00;;;;;;4997254;28;20540;-79
2023/05/07 08:49:44;;;;;;;4.80;4.40;;;15.20;1.00;;;;;;4997819;28;20458;-80
2023/05/07 08:52:14;;;;;;;4.47;4.17;;;15.20;1.00;;;;;;5003751;28;20520;-82
2023/05/07 08:54:41;;;;;;;5.07;4.63;;;15.20;1.00;;;;;;4998280;28;20494;-79
2023/05/07 08:57:11;;;;;;;7.17;4.80;;;15.20;1.00;;;;;;4996972;28;20561;-81
2023/05/07 08:59:38;;;;;;;5.60;5.10;;;15.00;1.00;;;;;;5004850;28;20521;-80
2023/05/07 09:02:11;;;;;;;6.03;4.50;;;15.10;1.00;;;;;;5006008;28;20457;-81
2023/05/07 09:04:38;;;;;;;7.20;4.77;;;15.30;1.00;;;;;;5008906;28;20454;-82
2023/05/07 09:07:05;;;;;;;4.37;3.97;;;15.20;1.00;;;;;;5009117;28;20542;-81
2023/05/07 09:09:34;;;;;;;7.73;6.93;;;15.30;1.00;;;;;;5008650;28;20451;-83
2023/05/07 09:12:05;;;;;;;5.63;5.10;;;15.60;1.00;;;;;;5017329;28;20877;-85
2023/05/07 09:14:33;;;;;;;4.87;4.30;;;15.80;1.00;;;;;;5016724;28;20537;-83
2023/05/07 09:17:03;;;;;;;5.53;5.07;;;16.00;1.00;;;;;;5011805;28;20446;-83
2023/05/07 09:19:35;;;;;;;6.10;4.90;;;16.20;1.00;;;;;;5009907;28;21274;-81
2023/05/07 09:22:03;;;;;;;5.07;4.73;;;16.20;1.00;;;;;;5007542;28;20527;-83
2023/05/07 09:24:34;;;;;;;4.87;4.47;;;16.60;1.00;;;;;;5005643;28;20455;-83
2023/05/07 09:27:02;;;;;;;5.33;4.80;;;17.10;1.00;;;;;;5008979;28;20447;-82
2023/05/07 09:29:35;;;;;;;4.70;4.20;;;17.10;1.00;;;;;;5008773;28;20485;-82
2023/05/07 09:32:04;;;;;;;5.87;4.07;;;17.00;1.00;;;;;;5005970;28;20936;-83
2023/05/07 09:34:33;;;;;;;4.30;3.90;;;17.40;1.00;;;;;;5014332;28;20481;-83
2023/05/07 09:37:03;;;;;;;4.47;4.17;;;17.70;1.00;;;;;;5014446;28;20463;-83
2023/05/07 09:39:40;;;;;;;5.03;4.23;;;18.00;1.00;;;;;;5016132;28;20481;-84
2023/05/07 09:42:08;;;;;;;4.03;3.60;;;17.60;1.00;;;;;;5013323;28;21208;-82
2023/05/07 09:44:39;;;;;;;4.23;3.83;;;17.50;1.00;;;;;;5010142;28;20456;-82
2023/05/07 09:47:08;;;;;;;6.53;4.10;;;17.80;1.00;;;;;;5008196;28;20542;-82
2023/05/07 09:49:38;;;;;;;4.67;4.27;;;18.10;1.00;;;;;;5018644;28;21196;-83
2023/05/07 09:52:08;;;;;;;4.70;4.30;;;18.00;1.00;;;;;;5016255;28;20413;-82
2023/05/07 09:54:37;;;;;;;3.90;3.50;;;17.70;1.00;;;;;;5007812;28;20576;-81
2023/05/07 09:57:06;;;;;;;4.23;3.63;;;17.50;1.00;;;;;;5008960;28;21202;-83
2023/05/07 09:59:36;;;;;;;3.60;3.10;;;18.10;1.00;;;;;;5007369;28;20453;-82
2023/05/07 10:02:04;;;;;;;3.60;3.10;;;19.00;1.00;;;;;;5002362;28;20478;-81
2023/05/07 10:04:35;;;;;;;2.90;2.70;;;19.70;1.00;;;;;;5005447;28;20487;-82
2023/05/07 10:07:05;;;;;;;3.40;3.10;;;20.90;1.00;;;;;;5013325;28;20422;-83
2023/05/07 10:09:33;;;;;;;3.20;2.90;;;21.80;1.00;;;;;;5023158;28;20460;-83
2023/05/07 10:12:03;;;;;;;2.57;2.37;;;20.60;1.00;;;;;;4988769;28;20532;-82
2023/05/07 10:14:32;;;;;;;3.93;2.47;;;20.00;1.00;;;;;;5011294;28;20471;-84
2023/05/07 10:17:00;;;;;;;2.50;2.30;;;19.90;1.00;;;;;;5011159;28;20452;-82
2023/05/07 10:19:31;;;;;;;2.20;2.10;;;20.60;1.00;;;;;;5017954;28;20472;-82
2023/05/07 10:22:06;;;;;;;3.83;2.97;;;21.30;1.00;;;;;;5011035;28;20460;-83
2023/05/07 10:24:35;;;;;;;2.40;2.20;;;20.90;1.00;;;;;;5011245;28;20448;-82
2023/05/07 10:27:05;;;;;;;2.73;2.50;;;20.50;1.00;;;;;;5008296;28;20478;-82
2023/05/07 10:29:40;;;;;;;3.50;2.70;;;20.20;1.00;;;;;;5012480;28;20485;-83
2023/05/07 10:32:25;;;;;;;2.60;2.23;;;19.60;1.00;;;;;;5008086;28;20468;-83
2023/05/07 10:34:56;;;;;;;2.30;2.20;;;20.20;1.00;;;;;;5002614;28;20466;-80
2023/05/07 10:37:25;;;;;;;3.70;2.67;;;19.00;1.00;;;;;;5005258;28;20521;-82
2023/05/07 10:39:53;;;;;;;3.10;2.90;;;18.50;1.00;;;;;;5021376;28;20442;-82
2023/05/07 10:42:23;;;;;;;3.47;3.10;;;18.10;1.00;;;;;;5012726;28;20469;-83
2023/05/07 10:44:50;;;;;;;2.30;2.10;;;18.30;1.00;;;;;;5009425;28;20555;-82
2023/05/07 10:47:18;;;;;;;2.77;2.57;;;18.30;1.00;;;;;;5011860;28;20466;-83
2023/05/07 10:50:23;;;;;;;2.47;2.27;;;18.30;1.00;;;;;;5007255;28;20527;-83
2023/05/07 10:53:28;;;;;;;3.00;2.70;;;18.00;1.00;;;;;;5013457;28;20428;-83
2023/05/07 10:56:29;;;;;;;5.03;3.87;;;18.10;1.00;;;;;;5014252;28;20462;-82
2023/05/07 10:58:56;;;;;;;2.60;2.00;;;19.60;1.00;;;;;;5015795;28;20466;-83
2023/05/07 11:01:51;;;;;;;2.83;2.43;;;19.90;1.00;;;;;;5004458;28;20518;-82
2023/05/07 11:04:24;;;;;;;2.67;2.47;;;19.60;1.00;;;;;;5006272;28;20459;-82
2023/05/07 11:07:28;;;;;;;2.60;2.40;;;19.60;1.00;;;;;;5011702;28;20558;-83
2023/05/07 11:10:01;;;;;;;2.53;2.33;;;19.80;1.00;;;;;;5009275;28;20464;-81
2023/05/07 11:12:56;;;;;;;2.70;2.50;;;19.70;1.00;;;;;;5012737;28;20613;-82
2023/05/07 11:15:47;;;;;;;3.10;2.70;;;19.30;1.00;;;;;;5017001;28;20456;-81
2023/05/07 11:18:16;;;;;;;3.40;2.70;;;19.80;1.00;;;;;;5007738;28;20455;-81
2023/05/07 11:20:48;;;;;;;3.00;2.43;;;20.20;1.00;;;;;;5004718;28;20521;-82
2023/05/07 11:23:52;;;;;;;2.90;2.63;;;22.10;1.00;;;;;;5008248;28;20477;-82
2023/05/07 11:26:21;;;;;;;3.10;2.70;;;23.30;1.00;;;;;;5006332;28;21146;-81
2023/05/07 11:28:49;;;;;;;3.23;2.37;;;23.80;1.00;;;;;;4990296;28;20458;-83
2023/05/07 11:31:22;;;;;;;2.87;2.67;;;23.70;1.00;;;;;;5010020;28;20559;-84
2023/05/07 11:33:50;;;;;;;2.60;2.40;;;23.40;1.00;;;;;;5007861;28;20531;-83
2023/05/07 11:36:17;;;;;;;2.07;1.87;;;23.10;1.00;;;;;;5011569;28;20584;-82
2023/05/07 11:38:45;;;;;;;2.83;2.63;;;22.40;1.00;;;;;;5012496;28;20533;-84
2023/05/07 11:41:12;;;;;;;2.50;2.30;;;22.60;1.00;;;;;;5009390;28;20544;-83
2023/05/07 11:43:55;;;;;;;3.00;2.70;;;23.00;1.00;;;;;;5008542;28;20463;-83
2023/05/07 11:46:22;;;;;;;3.27;2.57;;;22.70;1.00;;;;;;5012301;28;20564;-85
2023/05/07 11:48:49;;;;;;;2.73;2.30;;;22.40;1.00;;;;;;4992908;28;20455;-83
2023/05/07 11:51:21;;;;;;;3.43;2.10;;;22.50;1.00;;;;;;5014113;28;20420;-82
2023/05/07 11:53:49;;;;;;;2.27;2.07;;;22.50;1.00;;;;;;4995416;28;20468;-82
2023/05/07 11:56:19;;;;;;;2.50;1.93;;;22.20;1.00;;;;;;5006950;28;20431;-83
2023/05/07 11:58:50;;;;;;;3.90;2.60;;;22.40;1.00;;;;;;5011740;28;20508;-83
2023/05/07 12:01:18;;;;;;;3.03;2.10;;;22.00;1.00;;;;;;5007698;28;20413;-83
2023/05/07 12:03:47;;;;;;;3.77;2.47;;;21.80;1.00;;;;;;5007911;28;20978;-84
2023/05/07 12:06:16;;;;;;;5.10;2.70;;;20.30;1.00;;;;;;5014230;28;20449;-82
2023/05/07 12:08:49;;;;;;;2.80;2.17;;;21.00;1.00;;;;;;5009303;28;20448;-82
2023/05/07 12:11:23;;;;;;;5.67;2.30;;;22.60;1.00;;;;;;5012347;28;20446;-83
2023/05/07 12:14:01;;;;;;;2.53;2.33;;;22.50;1.00;;;;;;4988152;28;20479;-85
2023/05/07 12:16:30;;;;;;;3.97;2.00;;;23.10;1.00;;;;;;5009994;28;20435;-83
2023/05/07 12:18:59;;;;;;;2.10;1.97;;;23.10;1.00;;;;;;5012859;28;20461;-83
2023/05/07 12:21:26;;;;;;;3.60;2.17;;;22.10;1.00;;;;;;5015710;28;20464;-82
2023/05/07 12:24:03;;;;;;;3.23;1.70;;;21.80;1.00;;;;;;5013942;28;20547;-82
2023/05/07 12:26:30;;;;;;;2.53;2.10;;;21.70;1.00;;;;;;5006652;28;20452;-81
2023/05/07 12:28:59;;;;;;;2.00;1.90;;;23.20;1.00;;;;;;5014457;28;20535;-83
2023/05/07 12:31:30;;;;;;;3.00;2.27;;;23.80;1.00;;;;;;5009362;28;20428;-82
2023/05/07 12:33:57;;;;;;;1.90;1.80;;;25.60;1.00;;;;;;5008766;28;20485;-81
2023/05/07 12:36:25;;;;;;;2.83;2.63;;;26.60;1.00;;;;;;5010178;28;20898;-83
2023/05/07 12:38:52;;;;;;;2.63;2.33;;;27.20;1.00;;;;;;5007029;28;20496;-82
2023/05/07 12:41:25;;;;;;;1.93;1.83;;;27.20;1.00;;;;;;5002295;28;20454;-82
2023/05/07 12:44:01;;;;;;;2.30;2.10;;;28.60;1.00;;;;;;4986985;28;20475;-82
2023/05/07 12:46:28;;;;;;;4.20;2.10;;;29.40;1.00;;;;;;4992519;28;20469;-83
2023/05/07 12:48:57;;;;;;;2.07;1.90;;;27.80;1.00;;;;;;5000065;28;20457;-83
2023/05/07 12:51:24;;;;;;;3.03;2.20;;;26.70;1.00;;;;;;5005244;28;20457;-83
2023/05/07 12:53:51;;;;;;;14.77;13.40;;;25.40;1.00;;;;;;5007954;28;20532;-83
2023/05/07 12:56:18;;;;;;;2.00;1.80;;;24.90;1.00;;;;;;5007684;28;20488;-82
2023/05/07 12:58:45;;;;;;;2.30;1.57;;;24.90;1.00;;;;;;5002981;28;20907;-81
2023/05/07 13:01:15;;;;;;;2.57;2.23;;;25.60;1.00;;;;;;5010059;28;20489;-85